createdAt,value
2023-04-20T00:01:33.995Z,8.43
2023-04-20T00:04:19.147Z,8.10
2023-04-20T00:07:04.512Z,8.25
2023-04-20T00:09:49.925Z,8.18
2023-04-20T00:12:35.840Z,8.30
2023-04-20T00:15:21.447Z,7.78
2023-04-20T00:18:07.065Z,8.07
2023-04-20T00:20:52.341Z,7.88
2023-04-20T00:23:37.884Z,8.02
2023-04-20T00:26:23.145Z,8.15
2023-04-20T00:29:14.002Z,7.20
2023-04-20T00:31:59.391Z,8.32
2023-04-20T00:34:44.743Z,8.02
2023-04-20T00:37:30.054Z,7.97
2023-04-20T00:40:15.824Z,7.63
2023-04-20T00:43:11.314Z,8.23
2023-04-20T00:45:56.810Z,8.13
2023-04-20T00:48:42.115Z,7.55
2023-04-20T00:51:29.406Z,7.35
2023-04-20T00:54:16.183Z,7.80
2023-04-20T00:57:02.625Z,7.38
2023-04-20T00:59:48.392Z,7.43
2023-04-20T01:02:33.933Z,7.22
2023-04-20T01:05:21.169Z,7.53
2023-04-20T01:08:06.931Z,7.35
2023-04-20T01:10:56.100Z,7.45
2023-04-20T01:13:42.217Z,7.47
2023-04-20T01:16:27.909Z,7.60
2023-04-20T01:19:13.561Z,7.28
2023-04-20T01:21:59.123Z,7.25
2023-04-20T01:24:47.842Z,7.43
2023-04-20T01:27:33.329Z,7.72
2023-04-20T01:30:19.727Z,8.57
2023-04-20T01:33:05.135Z,7.95
2023-04-20T01:35:52.831Z,7.80
2023-04-20T01:38:37.998Z,8.15
2023-04-20T01:41:23.443Z,8.52
2023-04-20T01:44:08.546Z,8.77
2023-04-20T01:46:54.029Z,8.48
2023-04-20T01:49:39.526Z,8.43
2023-04-20T01:52:24.798Z,9.23
2023-04-20T01:55:11.579Z,9.85
2023-04-20T01:57:59.925Z,9.52
2023-04-20T02:00:45.459Z,9.63
2023-04-20T02:03:31.192Z,9.70
2023-04-20T02:06:16.480Z,9.90
2023-04-20T02:09:02.049Z,10.43
2023-04-20T02:11:47.185Z,9.82
2023-04-20T02:14:32.627Z,9.98
2023-04-20T02:17:18.333Z,10.20
2023-04-20T02:20:09.213Z,12.15
2023-04-20T02:22:54.500Z,11.40
2023-04-20T02:25:39.878Z,11.43
2023-04-20T02:28:25.367Z,11.93
2023-04-20T02:31:11.048Z,10.98
2023-04-20T02:33:56.312Z,11.80
2023-04-20T02:36:41.765Z,11.95
2023-04-20T02:39:29.957Z,12.25
2023-04-20T02:42:15.592Z,10.93
2023-04-20T02:45:01.916Z,13.40
2023-04-20T02:47:47.642Z,13.73
2023-04-20T02:50:35.025Z,12.75
2023-04-20T02:53:27.879Z,14.38
2023-04-20T02:56:27.166Z,13.50
2023-04-20T02:59:15.403Z,13.80
2023-04-20T03:02:11.380Z,13.23
2023-04-20T03:04:57.967Z,12.85
2023-04-20T03:07:43.449Z,14.82
2023-04-20T03:10:31.064Z,14.75
2023-04-20T03:13:23.149Z,15.45
2023-04-20T03:16:14.960Z,16.02
2023-04-20T03:19:04.582Z,15.05
2023-04-20T03:21:50.124Z,14.98
2023-04-20T03:24:36.201Z,14.93
2023-04-20T03:27:30.924Z,15.85
2023-04-20T03:30:28.829Z,15.73
2023-04-20T03:33:22.418Z,15.57
2023-04-20T03:36:09.269Z,15.65
2023-04-20T03:38:55.625Z,16.30
2023-04-20T03:41:41.086Z,14.93
2023-04-20T03:44:26.509Z,16.27
2023-04-20T03:47:12.117Z,15.57
2023-04-20T03:49:58.025Z,15.55
2023-04-20T03:52:43.410Z,16.10
2023-04-20T03:55:29.932Z,15.57
2023-04-20T03:58:21.649Z,16.23
2023-04-20T04:01:20.358Z,15.52
2023-04-20T04:04:07.723Z,15.20
2023-04-20T04:06:53.375Z,14.98
2023-04-20T04:09:38.739Z,16.13
2023-04-20T04:12:25.844Z,16.38
2023-04-20T04:15:12.294Z,14.88
2023-04-20T04:18:05.701Z,14.77
2023-04-20T04:20:52.669Z,15.52
2023-04-20T04:23:40.000Z,15.07
2023-04-20T04:26:39.682Z,14.63
2023-04-20T04:29:28.000Z,14.73
2023-04-20T04:32:18.093Z,16.55
2023-04-20T04:35:06.459Z,15.40
2023-04-20T04:37:55.191Z,12.55
2023-04-20T04:40:41.677Z,16.23
2023-04-20T04:43:27.872Z,16.10
2023-04-20T04:46:25.374Z,16.80
2023-04-20T04:49:11.464Z,15.90
2023-04-20T04:51:56.387Z,17.20
2023-04-20T04:54:41.811Z,17.25
2023-04-20T04:57:27.366Z,17.63
2023-04-20T05:00:15.829Z,17.52
2023-04-20T05:03:01.391Z,16.52
2023-04-20T05:05:46.850Z,16.27
2023-04-20T05:08:32.355Z,16.35
2023-04-20T05:11:17.715Z,16.45
2023-04-20T05:14:03.487Z,16.48
2023-04-20T05:16:48.705Z,18.10
2023-04-20T05:19:34.166Z,17.52
2023-04-20T05:22:19.362Z,16.02
2023-04-20T05:25:07.267Z,16.20
2023-04-20T05:27:52.383Z,17.87
2023-04-20T05:30:37.965Z,17.02
2023-04-20T05:33:23.273Z,17.60
2023-04-20T05:36:09.781Z,17.00
2023-04-20T05:38:55.469Z,16.55
2023-04-20T05:41:40.533Z,16.63
2023-04-20T05:44:25.659Z,18.00
2023-04-20T05:47:11.185Z,16.77
2023-04-20T05:49:56.294Z,17.33
2023-04-20T05:52:41.620Z,18.17
2023-04-20T05:55:27.036Z,17.70
2023-04-20T05:58:12.435Z,16.38
2023-04-20T06:00:59.155Z,18.65
2023-04-20T06:03:44.645Z,18.38
2023-04-20T06:06:30.708Z,16.48
2023-04-20T06:09:16.213Z,17.77
2023-04-20T06:12:02.621Z,18.65
2023-04-20T06:14:48.199Z,17.05
2023-04-20T06:17:37.709Z,18.23
2023-04-20T06:20:23.785Z,18.38
2023-04-20T06:23:09.378Z,17.63
2023-04-20T06:25:54.685Z,16.05
2023-04-20T06:28:40.689Z,16.88
2023-04-20T06:31:26.309Z,17.33
2023-04-20T06:34:12.319Z,16.73
2023-04-20T06:36:57.549Z,16.80
2023-04-20T06:39:42.848Z,15.55
2023-04-20T06:42:28.267Z,16.52
2023-04-20T06:45:15.797Z,17.27
2023-04-20T06:48:01.494Z,15.70
2023-04-20T06:50:50.571Z,18.10
2023-04-20T06:53:35.752Z,18.05
2023-04-20T06:56:22.918Z,16.98
2023-04-20T06:59:08.209Z,16.92
2023-04-20T07:01:53.825Z,17.55
2023-04-20T07:04:38.893Z,17.02
2023-04-20T07:07:24.278Z,15.48
2023-04-20T07:10:11.711Z,16.58
2023-04-20T07:12:57.082Z,16.83
2023-04-20T07:15:45.052Z,15.70
2023-04-20T07:18:31.935Z,15.65
2023-04-20T07:21:19.956Z,16.45
2023-04-20T07:24:05.864Z,17.35
2023-04-20T07:26:51.334Z,17.45
2023-04-20T07:29:36.471Z,16.98
2023-04-20T07:32:22.359Z,16.10
2023-04-20T07:35:08.085Z,17.42
2023-04-20T07:37:53.645Z,16.85
2023-04-20T07:40:38.765Z,16.05
2023-04-20T07:43:24.247Z,17.00
2023-04-20T07:46:09.737Z,17.52
2023-04-20T07:48:55.227Z,16.27
2023-04-20T07:51:43.479Z,16.95
2023-04-20T07:54:28.564Z,16.58
2023-04-20T07:57:14.054Z,16.70
2023-04-20T07:59:59.185Z,15.43
2023-04-20T08:02:44.530Z,16.55
2023-04-20T08:05:30.060Z,17.00
2023-04-20T08:08:17.768Z,16.08
2023-04-20T08:11:02.982Z,14.73
2023-04-20T08:13:48.293Z,15.88
2023-04-20T08:16:33.564Z,17.00
2023-04-20T08:19:19.077Z,14.40
2023-04-20T08:22:05.987Z,15.20
2023-04-20T08:24:51.128Z,15.70
2023-04-20T08:27:36.686Z,13.80
2023-04-20T08:30:24.545Z,14.82
2023-04-20T08:33:10.509Z,15.85
2023-04-20T08:35:56.258Z,15.60
2023-04-20T08:38:41.810Z,16.35
2023-04-20T08:41:26.999Z,16.92
2023-04-20T08:44:12.609Z,17.13
2023-04-20T08:46:59.924Z,16.55
2023-04-20T08:49:46.281Z,17.38
2023-04-20T08:52:32.542Z,17.17
2023-04-20T08:55:18.641Z,17.08
2023-04-20T08:58:04.121Z,17.52
2023-04-20T09:00:49.739Z,18.92
2023-04-20T09:03:40.977Z,18.17
2023-04-20T09:06:26.821Z,18.00
2023-04-20T09:09:12.142Z,18.75
2023-04-20T09:12:06.771Z,18.67
2023-04-20T09:14:52.395Z,17.17
2023-04-20T09:17:41.056Z,18.35
2023-04-20T09:20:31.539Z,18.75
2023-04-20T09:23:18.492Z,19.70
2023-04-20T09:26:04.086Z,18.63
2023-04-20T09:28:49.477Z,18.05
2023-04-20T09:31:36.598Z,17.58
2023-04-20T09:34:23.962Z,17.20
2023-04-20T09:37:11.280Z,16.70
2023-04-20T09:39:59.996Z,16.58
2023-04-20T09:42:47.253Z,16.40
2023-04-20T09:45:32.984Z,17.75
2023-04-20T09:48:20.737Z,16.33
2023-04-20T09:51:07.006Z,14.65
2023-04-20T09:53:54.609Z,15.05
2023-04-20T09:56:41.155Z,14.70
2023-04-20T09:59:27.619Z,14.15
2023-04-20T10:02:14.124Z,14.70
2023-04-20T10:04:59.802Z,12.75
2023-04-20T10:07:45.112Z,13.98
2023-04-20T10:10:31.005Z,15.35
2023-04-20T10:13:19.236Z,14.85
2023-04-20T10:16:04.826Z,14.00
2023-04-20T10:19:05.691Z,14.30
2023-04-20T10:21:51.864Z,13.80
2023-04-20T10:24:40.496Z,13.93
2023-04-20T10:27:26.130Z,13.20
2023-04-20T10:30:11.819Z,12.60
2023-04-20T10:33:11.937Z,13.90
2023-04-20T10:35:58.929Z,13.65
2023-04-20T10:38:44.129Z,13.30
2023-04-20T10:41:29.692Z,13.30
2023-04-20T10:44:15.516Z,14.05
2023-04-20T10:47:01.399Z,14.38
2023-04-20T10:49:46.922Z,13.73
2023-04-20T10:52:36.498Z,13.25
2023-04-20T10:55:24.450Z,13.10
2023-04-20T10:58:09.745Z,12.82
2023-04-20T11:01:02.095Z,14.57
2023-04-20T11:03:52.146Z,14.20
2023-04-20T11:09:28.513Z,14.45
2023-04-20T11:12:14.715Z,14.32
2023-04-20T11:15:02.679Z,14.50
2023-04-20T11:17:48.225Z,14.70
2023-04-20T11:20:33.870Z,13.27
2023-04-20T11:23:20.797Z,15.35
2023-04-20T11:26:06.799Z,16.13
2023-04-20T11:28:55.974Z,13.27
2023-04-20T11:31:42.247Z,13.68
2023-04-20T11:34:27.990Z,13.48
2023-04-20T11:37:13.756Z,13.45
2023-04-20T11:40:06.443Z,11.70
2023-04-20T11:42:51.923Z,14.02
2023-04-20T11:45:37.187Z,12.95
2023-04-20T11:48:22.623Z,14.63
2023-04-20T11:51:07.972Z,13.38
2023-04-20T11:53:53.177Z,13.18
2023-04-20T11:56:39.466Z,15.30
2023-04-20T11:59:25.273Z,13.90
2023-04-20T12:02:10.775Z,15.30
2023-04-20T12:05:02.071Z,14.13
2023-04-20T12:07:47.501Z,14.40
2023-04-20T12:10:32.711Z,12.48
2023-04-20T12:13:18.052Z,14.05
2023-04-20T12:16:03.558Z,13.38
2023-04-20T12:18:48.816Z,13.93
2023-04-20T12:21:34.092Z,13.95
2023-04-20T12:24:19.476Z,12.95
2023-04-20T12:27:06.010Z,14.63
2023-04-20T12:29:51.869Z,14.70
2023-04-20T12:32:37.165Z,14.80
2023-04-20T12:35:22.774Z,14.63
2023-04-20T12:38:08.381Z,14.57
2023-04-20T12:40:53.770Z,14.93
2023-04-20T12:43:39.227Z,14.52
2023-04-20T12:46:25.522Z,15.43
2023-04-20T12:49:10.986Z,14.88
2023-04-20T12:51:56.285Z,14.35
2023-04-20T12:54:43.882Z,14.02
2023-04-20T12:57:29.559Z,13.68
2023-04-20T13:00:15.237Z,13.65
2023-04-20T13:03:00.703Z,13.27
2023-04-20T13:05:46.280Z,13.55
2023-04-20T13:08:31.754Z,13.60
2023-04-20T13:11:17.977Z,14.35
2023-04-20T13:14:03.607Z,14.18
2023-04-20T13:16:54.521Z,13.23
2023-04-20T13:19:40.827Z,13.98
2023-04-20T13:22:26.209Z,13.48
2023-04-20T13:25:11.995Z,14.35
2023-04-20T13:27:57.692Z,13.60
2023-04-20T13:30:43.832Z,14.77
2023-04-20T13:33:29.318Z,15.32
2023-04-20T13:36:14.948Z,15.98
2023-04-20T13:39:01.692Z,13.98
2023-04-20T13:41:49.196Z,12.70
2023-04-20T13:44:35.343Z,13.57
2023-04-20T13:47:21.206Z,14.13
2023-04-20T13:50:07.229Z,12.82
2023-04-20T13:52:52.393Z,13.93
2023-04-20T13:55:37.573Z,13.07
2023-04-20T13:58:22.956Z,12.85
2023-04-20T14:01:12.685Z,12.30
2023-04-20T14:03:58.628Z,11.73
2023-04-20T14:06:44.200Z,12.13
2023-04-20T14:09:31.181Z,12.15
2023-04-20T14:12:16.700Z,11.93
2023-04-20T14:15:02.262Z,11.55
2023-04-20T14:17:47.381Z,12.15
2023-04-20T14:20:32.664Z,11.35
2023-04-20T14:23:19.406Z,11.65
2023-04-20T14:26:04.959Z,11.77
2023-04-20T14:28:52.948Z,11.40
2023-04-20T14:31:38.581Z,11.57
2023-04-20T14:34:26.540Z,10.82
2023-04-20T14:37:11.928Z,11.13
2023-04-20T14:39:57.368Z,11.80
2023-04-20T14:42:42.744Z,11.57
2023-04-20T14:45:28.728Z,11.23
2023-04-20T14:48:13.881Z,11.07
2023-04-20T14:50:59.203Z,12.05
2023-04-20T14:53:44.264Z,10.70
2023-04-20T14:56:29.704Z,10.35
2023-04-20T14:59:15.012Z,10.20
2023-04-20T15:02:02.722Z,10.23
2023-04-20T15:04:49.115Z,9.40
2023-04-20T15:07:34.485Z,9.52
2023-04-20T15:10:20.549Z,9.43
2023-04-20T15:13:06.620Z,9.75
2023-04-20T15:15:54.825Z,9.25
2023-04-20T15:18:40.514Z,8.23
2023-04-20T15:21:25.885Z,8.35
2023-04-20T15:24:11.163Z,7.90
2023-04-20T15:26:56.384Z,8.20
2023-04-20T15:29:41.716Z,7.43
2023-04-20T15:32:27.376Z,7.60
2023-04-20T15:35:12.775Z,7.57
2023-04-20T15:37:58.226Z,7.80
2023-04-20T15:40:43.490Z,7.13
2023-04-20T15:43:29.290Z,7.40
2023-04-20T15:46:17.598Z,7.30
2023-04-20T15:49:02.827Z,7.20
2023-04-20T15:51:51.024Z,7.68
2023-04-20T15:54:37.300Z,7.35
2023-04-20T15:57:22.645Z,7.32
2023-04-20T16:00:09.715Z,8.00
2023-04-20T16:03:01.359Z,7.85
2023-04-20T16:05:47.076Z,7.45
2023-04-20T16:08:32.619Z,7.07
2023-04-20T16:11:17.649Z,7.93
2023-04-20T16:14:05.255Z,7.88
2023-04-20T16:16:50.812Z,7.38
2023-04-20T16:19:36.307Z,7.28
2023-04-20T16:22:21.603Z,6.80
2023-04-20T16:25:07.268Z,6.85
2023-04-20T16:27:52.437Z,7.43
2023-04-20T16:30:37.668Z,6.78
2023-04-20T16:33:23.028Z,6.07
2023-04-20T16:36:12.248Z,7.10
2023-04-20T16:38:57.693Z,7.30
2023-04-20T16:41:43.071Z,7.10
2023-04-20T16:44:28.292Z,7.60
2023-04-20T16:47:13.335Z,7.20
2023-04-20T16:49:59.121Z,7.90
2023-04-20T16:52:44.258Z,6.90
2023-04-20T16:55:29.679Z,8.13
2023-04-20T16:58:14.927Z,7.72
2023-04-20T17:01:00.407Z,8.30
2023-04-20T17:03:46.101Z,8.30
2023-04-20T17:06:31.554Z,7.10
2023-04-20T17:09:17.096Z,6.70
2023-04-20T17:12:02.412Z,7.65
2023-04-20T17:14:47.508Z,7.85
2023-04-20T17:17:34.087Z,7.13
2023-04-20T17:20:19.846Z,7.30
2023-04-20T17:23:05.383Z,7.18
2023-04-20T17:25:51.324Z,7.90
2023-04-20T17:28:41.924Z,7.13
2023-04-20T17:31:27.308Z,7.97
2023-04-20T17:34:12.699Z,8.52
2023-04-20T17:36:57.735Z,8.30
2023-04-20T17:39:43.591Z,8.82
2023-04-20T17:42:28.970Z,8.30
2023-04-20T17:45:14.359Z,8.50
2023-04-20T17:47:59.562Z,8.43
2023-04-20T17:50:50.959Z,8.73
2023-04-20T17:53:36.214Z,8.15
2023-04-20T17:56:21.721Z,8.02
2023-04-20T17:59:07.249Z,8.25
2023-04-20T18:01:52.469Z,8.82
2023-04-20T18:04:38.858Z,8.18
2023-04-20T18:07:24.272Z,8.55
2023-04-20T18:10:10.328Z,8.57
2023-04-20T18:12:55.510Z,8.45
2023-04-20T18:15:40.845Z,8.18
2023-04-20T18:18:26.069Z,7.88
2023-04-20T18:21:13.978Z,8.20
2023-04-20T18:23:59.310Z,8.23
2023-04-20T18:26:44.765Z,8.15
2023-04-20T18:29:30.327Z,8.95
2023-04-20T18:32:17.913Z,8.75
2023-04-20T18:35:06.488Z,8.82
2023-04-20T18:37:53.386Z,8.90
2023-04-20T18:40:39.039Z,8.52
2023-04-20T18:43:24.301Z,10.45
2023-04-20T18:46:10.021Z,8.90
2023-04-20T18:48:55.635Z,8.90
2023-04-20T18:51:43.744Z,8.65
2023-04-20T18:54:29.113Z,8.13
2023-04-20T18:57:14.605Z,8.35
2023-04-20T18:59:59.771Z,9.38
2023-04-20T19:02:45.058Z,9.13
2023-04-20T19:05:30.794Z,7.78
2023-04-20T19:08:18.536Z,7.55
2023-04-20T19:11:04.112Z,7.57
2023-04-20T19:13:49.296Z,7.78
2023-04-20T19:16:37.202Z,8.23
2023-04-20T19:19:24.461Z,7.68
2023-04-20T19:22:09.544Z,7.28
2023-04-20T19:24:57.763Z,7.65
2023-04-20T19:27:43.242Z,8.13
2023-04-20T19:30:28.461Z,6.75
2023-04-20T19:33:13.952Z,7.45
2023-04-20T19:35:59.336Z,7.68
2023-04-20T19:38:45.683Z,7.68
2023-04-20T19:41:35.014Z,7.63
2023-04-20T19:44:20.646Z,8.38
2023-04-20T19:47:06.890Z,6.80
2023-04-20T19:49:52.497Z,7.80
2023-04-20T19:52:37.657Z,7.28
2023-04-20T19:55:22.917Z,6.38
2023-04-20T19:58:10.520Z,7.50
2023-04-20T20:00:56.245Z,7.80
2023-04-20T20:03:42.897Z,6.57
2023-04-20T20:06:28.455Z,8.18
2023-04-20T20:09:13.592Z,7.30
2023-04-20T20:12:01.057Z,7.68
2023-04-20T20:14:46.084Z,7.10
2023-04-20T20:17:31.648Z,7.00
2023-04-20T20:20:17.407Z,7.18
2023-04-20T20:23:02.792Z,6.13
2023-04-20T20:25:47.994Z,7.30
2023-04-20T20:28:33.492Z,6.63
2023-04-20T20:31:18.829Z,7.07
2023-04-20T20:34:03.926Z,6.80
2023-04-20T20:36:53.135Z,7.38
2023-04-20T20:39:38.487Z,6.70
2023-04-20T20:42:25.569Z,6.78
2023-04-20T20:45:12.344Z,6.47
2023-04-20T20:47:58.247Z,7.57
2023-04-20T20:50:43.539Z,7.22
2023-04-20T20:53:28.585Z,6.57
2023-04-20T20:56:14.049Z,7.75
2023-04-20T20:58:59.570Z,7.07
2023-04-20T21:01:44.948Z,6.70
2023-04-20T21:04:30.483Z,8.00
2023-04-20T21:07:15.834Z,6.90
2023-04-20T21:10:00.988Z,7.68
2023-04-20T21:12:46.113Z,7.25
2023-04-20T21:15:31.364Z,7.75
2023-04-20T21:18:16.821Z,7.38
2023-04-20T21:21:02.183Z,7.07
2023-04-20T21:23:48.691Z,6.78
2023-04-20T21:26:37.161Z,6.55
2023-04-20T21:29:22.665Z,6.35
2023-04-20T21:32:09.650Z,6.63
2023-04-20T21:34:54.702Z,6.85
2023-04-20T21:37:40.327Z,6.15
2023-04-20T21:40:26.832Z,6.32
2023-04-20T21:43:12.224Z,6.82
2023-04-20T21:45:57.480Z,6.45
2023-04-20T21:48:43.037Z,6.55
2023-04-20T21:51:28.353Z,7.10
2023-04-20T21:54:13.795Z,6.10
2023-04-20T21:56:59.549Z,6.18
2023-04-20T21:59:44.772Z,6.88
2023-04-20T22:02:30.454Z,6.63
2023-04-20T22:05:15.479Z,6.35
2023-04-20T22:08:01.198Z,5.78
2023-04-20T22:10:46.464Z,5.68
2023-04-20T22:13:31.630Z,6.40
2023-04-20T22:16:17.975Z,6.18
2023-04-20T22:19:04.203Z,6.30
2023-04-20T22:21:49.480Z,6.38
2023-04-20T22:24:34.937Z,6.60
2023-04-20T22:27:20.029Z,6.18
2023-04-20T22:30:06.550Z,6.20
2023-04-20T22:32:51.900Z,6.05
2023-04-20T22:35:37.649Z,5.97
2023-04-20T22:38:23.167Z,6.82
2023-04-20T22:41:08.486Z,7.65
2023-04-20T22:43:53.959Z,5.90
2023-04-20T22:46:39.519Z,6.30
2023-04-20T22:49:24.965Z,6.05
2023-04-20T22:52:11.071Z,5.75
2023-04-20T22:54:56.290Z,6.38
2023-04-20T22:57:41.488Z,6.60
2023-04-20T23:00:26.696Z,7.18
2023-04-20T23:03:12.301Z,6.03
2023-04-20T23:05:58.898Z,6.28
2023-04-20T23:08:45.609Z,6.40
2023-04-20T23:11:30.716Z,6.55
2023-04-20T23:14:16.184Z,6.50
2023-04-20T23:17:01.590Z,6.97
2023-04-20T23:19:47.340Z,6.80
2023-04-20T23:22:32.460Z,6.65
2023-04-20T23:25:17.889Z,5.57
2023-04-20T23:28:03.322Z,6.78
2023-04-20T23:30:48.502Z,5.88
2023-04-20T23:33:33.949Z,7.35
2023-04-20T23:36:19.301Z,6.72
2023-04-20T23:39:05.685Z,6.93
2023-04-20T23:41:51.200Z,6.75
2023-04-20T23:44:36.676Z,7.03
2023-04-20T23:47:22.167Z,6.47
2023-04-20T23:50:08.272Z,6.53
2023-04-20T23:52:56.098Z,7.13
2023-04-20T23:55:41.373Z,6.90
2023-04-20T23:58:28.145Z,6.80
